Wetterdaten: Woche 02.07.01 - 08.07.01 (KW27)
Datum Zeit Temperatur Luftfeuchte Luftdruck Regenmenge Wind Richtung Taupunkt Windchill
02.07.2001 00:00 14.6 C 79 % 1023.3 hPa 0.0 l/m 0.0 km/h (0 Bft) N 11.0 C 14.6 C
02.07.2001 01:00 13.9 C 82 % 1023.3 hPa 0.0 l/m 0.1 km/h (0 Bft) N 10.9 C 13.9 C
02.07.2001 02:00 13.2 C 85 % 1022.8 hPa 0.0 l/m 0.0 km/h (0 Bft) N 10.6 C 13.2 C
02.07.2001 03:00 12.5 C 87 % 1022.2 hPa 0.0 l/m 0.0 km/h (0 Bft) N 10.4 C 12.5 C
02.07.2001 04:00 11.9 C 89 % 1022.8 hPa 0.0 l/m 0.0 km/h (0 Bft) N 10.2 C 11.9 C
02.07.2001 05:00 11.5 C 90 % 1022.2 hPa 0.0 l/m 0.0 km/h (0 Bft) N 9.9 C 11.5 C
02.07.2001 06:00 11.9 C 91 % 1022.2 hPa 0.0 l/m 0.0 km/h (0 Bft) N 10.4 C 11.9 C
02.07.2001 07:00 13.5 C 83 % 1022.2 hPa 0.0 l/m 0.0 km/h (0 Bft) N 10.7 C 13.5 C
02.07.2001 08:00 15.6 C 75 % 1022.2 hPa 0.0 l/m 0.0 km/h (0 Bft) N 11.2 C 15.6 C
02.07.2001 09:00 18.2 C 67 % 1022.2 hPa 0.0 l/m 0.1 km/h (0 Bft) N 12.0 C 18.2 C
02.07.2001 10:00 20.2 C 62 % 1022.2 hPa 0.0 l/m 2.9 km/h (1 Bft) O-SO 12.7 C 20.2 C
02.07.2001 11:00 23.8 C 48 % 1021.8 hPa 0.0 l/m 3.9 km/h (1 Bft) O-SO 12.1 C 23.8 C
02.07.2001 12:00 25.3 C 40 % 1021.2 hPa 0.0 l/m 5.2 km/h (1 Bft) O-SO 10.8 C 25.3 C
02.07.2001 13:00 25.7 C 39 % 1020.8 hPa 0.0 l/m 1.6 km/h (1 Bft) SO 10.5 C 25.7 C
02.07.2001 14:00 27.2 C 35 % 1020.1 hPa 0.0 l/m 5.6 km/h (1 Bft) O-SO 10.6 C 27.2 C
02.07.2001 15:00 27.8 C 37 % 1019.9 hPa 0.0 l/m 6.4 km/h (2 Bft) O-SO 11.7 C 27.8 C
02.07.2001 16:00 28.0 C 37 % 1019.1 hPa 0.0 l/m 5.7 km/h (1 Bft) O-SO 12.0 C 28.0 C
02.07.2001 17:00 28.0 C 37 % 1019.0 hPa 0.0 l/m 7.4 km/h (2 Bft) O-SO 11.9 C 28.0 C
02.07.2001 18:00 27.0 C 41 % 1018.1 hPa 0.0 l/m 8.4 km/h (2 Bft) O-SO 12.5 C 27.0 C
02.07.2001 19:00 25.1 C 45 % 1018.1 hPa 0.0 l/m 6.1 km/h (2 Bft) O-SO 12.3 C 25.1 C
02.07.2001 20:00 22.8 C 52 % 1018.1 hPa 0.0 l/m 1.0 km/h (0 Bft) O-SO 12.4 C 22.8 C
02.07.2001 21:00 20.3 C 61 % 1018.3 hPa 0.0 l/m 0.1 km/h (0 Bft) N 12.4 C 20.3 C
02.07.2001 22:00 18.8 C 67 % 1019.1 hPa 0.0 l/m 0.1 km/h (0 Bft) N 12.4 C 18.8 C
02.07.2001 23:00 18.4 C 67 % 1019.1 hPa 0.0 l/m 0.0 km/h (0 Bft) N 12.1 C 18.4 C
03.07.2001 00:00 16.9 C 73 % 1019.1 hPa 0.0 l/m 0.2 km/h (0 Bft) O-SO 12.0 C 16.9 C
03.07.2001 01:00 16.5 C 73 % 1018.1 hPa 0.0 l/m 0.0 km/h (0 Bft) N 11.6 C 16.5 C
03.07.2001 02:00 15.6 C 76 % 1018.1 hPa 0.0 l/m 0.1 km/h (0 Bft) N 11.4 C 15.6 C
03.07.2001 03:00 14.0 C 82 % 1017.4 hPa 0.0 l/m 0.0 km/h (0 Bft) N 11.0 C 14.0 C
03.07.2001 04:00 13.3 C 84 % 1017.0 hPa 0.0 l/m 0.0 km/h (0 Bft) N 10.6 C 13.3 C
03.07.2001 05:00 13.5 C 82 % 1017.0 hPa 0.0 l/m 0.0 km/h (0 Bft) N 10.5 C 13.5 C
03.07.2001 06:00 13.3 C 83 % 1016.0 hPa 0.0 l/m 0.0 km/h (0 Bft) N 10.4 C 13.3 C
03.07.2001 07:00 15.1 C 78 % 1016.0 hPa 0.0 l/m 0.0 km/h (0 Bft) N 11.3 C 15.1 C
03.07.2001 08:00 17.3 C 65 % 1016.0 hPa 0.0 l/m 1.8 km/h (1 Bft) O-SO 10.6 C 17.3 C
03.07.2001 09:00 19.0 C 60 % 1014.9 hPa 0.0 l/m 4.0 km/h (1 Bft) SO 11.1 C 19.0 C
03.07.2001 10:00 20.2 C 57 % 1014.9 hPa 0.0 l/m 1.5 km/h (1 Bft) O-SO 11.4 C 20.2 C
03.07.2001 11:00 24.0 C 46 % 1014.1 hPa 0.0 l/m 7.0 km/h (2 Bft) O-SO 11.5 C 24.0 C
03.07.2001 12:00 25.5 C 38 % 1013.9 hPa 0.0 l/m 4.5 km/h (1 Bft) O 10.3 C 25.5 C
03.07.2001 13:00 27.5 C 37 % 1013.3 hPa 0.0 l/m 5.1 km/h (1 Bft) O-SO 11.3 C 27.5 C
03.07.2001 14:00 28.2 C 35 % 1012.4 hPa 0.0 l/m 9.0 km/h (2 Bft) O-SO 11.3 C 28.2 C
03.07.2001 15:00 28.4 C 32 % 1011.8 hPa 0.0 l/m 6.5 km/h (2 Bft) O-SO 10.2 C 28.4 C
03.07.2001 16:00 28.8 C 34 % 1011.0 hPa 0.0 l/m 11.3 km/h (2 Bft) O-SO 11.2 C 28.8 C
03.07.2001 17:00 28.4 C 33 % 1010.8 hPa 0.0 l/m 13.0 km/h (3 Bft) O-SO 10.5 C 28.4 C
03.07.2001 18:00 27.3 C 35 % 1010.2 hPa 0.0 l/m 8.6 km/h (2 Bft) O-SO 10.2 C 27.3 C
03.07.2001 19:00 25.2 C 39 % 1009.7 hPa 0.0 l/m 9.2 km/h (2 Bft) O-SO 10.0 C 25.2 C
03.07.2001 20:00 23.6 C 42 % 1009.7 hPa 0.0 l/m 0.8 km/h (0 Bft) O-SO 9.7 C 23.6 C
03.07.2001 21:00 20.8 C 53 % 1009.7 hPa 0.0 l/m 0.0 km/h (0 Bft) N 10.7 C 20.8 C
03.07.2001 22:00 18.9 C 59 % 1009.7 hPa 0.0 l/m 0.1 km/h (0 Bft) N 10.6 C 18.9 C
03.07.2001 23:00 17.8 C 62 % 1009.7 hPa 0.0 l/m 0.1 km/h (0 Bft) N 10.4 C 17.8 C
04.07.2001 00:00 16.6 C 66 % 1009.7 hPa 0.0 l/m 0.0 km/h (0 Bft) N 10.3 C 16.6 C
04.07.2001 01:00 16.1 C 63 % 1009.7 hPa 0.0 l/m 0.1 km/h (0 Bft) N 9.0 C 16.1 C
04.07.2001 02:00 15.2 C 65 % 1009.3 hPa 0.0 l/m 0.0 km/h (0 Bft) N 8.6 C 15.2 C
04.07.2001 03:00 13.7 C 70 % 1008.7 hPa 0.0 l/m 1.3 km/h (1 Bft) O-SO 8.4 C 13.7 C
04.07.2001 04:00 13.4 C 70 % 1008.7 hPa 0.0 l/m 1.4 km/h (1 Bft) O-SO 8.1 C 13.4 C
04.07.2001 05:00 12.7 C 75 % 1008.1 hPa 0.0 l/m 0.8 km/h (0 Bft) O-SO 8.2 C 12.7 C
04.07.2001 06:00 12.5 C 76 % 1007.6 hPa 0.0 l/m 0.6 km/h (0 Bft) O-SO 8.5 C 12.5 C
04.07.2001 07:00 13.8 C 72 % 1007.6 hPa 0.0 l/m 1.1 km/h (1 Bft) O-SO 8.9 C 13.8 C
04.07.2001 08:00 15.4 C 65 % 1007.6 hPa 0.0 l/m 2.1 km/h (1 Bft) O 8.8 C 15.4 C
04.07.2001 09:00 16.8 C 62 % 1007.6 hPa 0.0 l/m 0.5 km/h (0 Bft) O-SO 9.4 C 16.8 C
04.07.2001 10:00 18.5 C 59 % 1007.6 hPa 0.0 l/m 2.2 km/h (1 Bft) O-SO 10.4 C 18.5 C
04.07.2001 11:00 21.0 C 55 % 1007.6 hPa 0.0 l/m 5.3 km/h (1 Bft) O-SO 11.6 C 21.0 C
04.07.2001 12:00 23.4 C 49 % 1007.0 hPa 0.0 l/m 6.8 km/h (2 Bft) O-SO 12.0 C 23.4 C
04.07.2001 13:00 26.9 C 38 % 1006.6 hPa 0.0 l/m 2.7 km/h (1 Bft) O-SO 11.4 C 26.9 C
04.07.2001 14:00 27.5 C 38 % 1005.9 hPa 0.0 l/m 3.5 km/h (1 Bft) O-SO 11.8 C 27.5 C
04.07.2001 15:00 27.8 C 40 % 1005.6 hPa 0.0 l/m 6.0 km/h (2 Bft) O-SO 13.1 C 27.8 C
04.07.2001 16:00 27.6 C 42 % 1005.6 hPa 0.0 l/m 6.5 km/h (2 Bft) O-SO 13.7 C 27.6 C
04.07.2001 17:00 27.9 C 41 % 1005.6 hPa 0.0 l/m 7.2 km/h (2 Bft) O-SO 13.4 C 27.9 C
04.07.2001 18:00 26.7 C 46 % 1005.6 hPa 0.0 l/m 2.2 km/h (1 Bft) O-SO 14.1 C 26.7 C
04.07.2001 19:00 27.2 C 46 % 1005.6 hPa 0.0 l/m 1.8 km/h (1 Bft) O-SO 14.6 C 27.2 C
04.07.2001 20:00 24.4 C 57 % 1005.6 hPa 0.0 l/m 0.4 km/h (0 Bft) SO 15.3 C 24.4 C
04.07.2001 21:00 21.5 C 68 % 1005.6 hPa 0.0 l/m 2.4 km/h (1 Bft) SO 15.4 C 21.5 C
04.07.2001 22:00 19.1 C 77 % 1006.3 hPa 0.0 l/m 0.3 km/h (0 Bft) O-SO 15.0 C 19.1 C
04.07.2001 23:00 18.4 C 79 % 1006.6 hPa 0.0 l/m 0.0 km/h (0 Bft) N 14.7 C 18.4 C
05.07.2001 00:00 17.7 C 81 % 1006.6 hPa 0.0 l/m 0.1 km/h (0 Bft) N 14.4 C 17.7 C
05.07.2001 01:00 17.1 C 80 % 1006.6 hPa 0.0 l/m 0.0 km/h (0 Bft) N 13.6 C 17.1 C
05.07.2001 02:00 16.1 C 82 % 1006.6 hPa 0.0 l/m 0.3 km/h (0 Bft) S-SO 13.0 C 16.1 C
05.07.2001 03:00 15.3 C 83 % 1006.6 hPa 0.0 l/m 0.5 km/h (0 Bft) O-SO 12.4 C 15.3 C
05.07.2001 04:00 14.7 C 85 % 1007.6 hPa 0.0 l/m 0.9 km/h (0 Bft) O-SO 12.2 C 14.7 C
05.07.2001 05:00 14.1 C 86 % 1007.6 hPa 0.0 l/m 0.2 km/h (0 Bft) O-SO 11.8 C 14.1 C
05.07.2001 06:00 14.2 C 88 % 1007.6 hPa 0.0 l/m 0.3 km/h (0 Bft) SO 12.2 C 14.2 C
05.07.2001 07:00 16.4 C 79 % 1008.0 hPa 0.0 l/m 0.4 km/h (0 Bft) W 12.6 C 16.4 C
05.07.2001 08:00 17.7 C 74 % 1008.5 hPa 0.0 l/m 2.6 km/h (1 Bft) O-SO 13.0 C 17.7 C
05.07.2001 09:00 19.9 C 66 % 1007.9 hPa 0.0 l/m 3.1 km/h (1 Bft) O-SO 13.3 C 19.9 C
05.07.2001 10:00 22.1 C 60 % 1007.6 hPa 0.0 l/m 10.7 km/h (2 Bft) O-SO 14.0 C 22.1 C
05.07.2001 11:00 24.4 C 55 % 1007.6 hPa 0.0 l/m 9.6 km/h (2 Bft) O-SO 14.6 C 24.4 C
05.07.2001 12:00 26.9 C 49 % 1007.6 hPa 0.0 l/m 9.5 km/h (2 Bft) O-SO 15.2 C 26.9 C
05.07.2001 13:00 29.5 C 40 % 1006.6 hPa 0.0 l/m 10.1 km/h (2 Bft) O-SO 14.5 C 29.5 C
05.07.2001 14:00 30.2 C 37 % 1006.6 hPa 0.0 l/m 2.5 km/h (1 Bft) O 13.8 C 30.2 C
05.07.2001 15:00 28.8 C 40 % 1006.6 hPa 0.0 l/m 0.7 km/h (0 Bft) N-NO 14.0 C 28.8 C
05.07.2001 16:00 29.7 C 40 % 1006.6 hPa 0.0 l/m 2.8 km/h (1 Bft) O 14.8 C 29.7 C
05.07.2001 17:00 30.5 C 37 % 1005.8 hPa 0.0 l/m 5.4 km/h (1 Bft) O-SO 14.3 C 30.5 C
05.07.2001 18:00 29.3 C 42 % 1005.6 hPa 0.0 l/m 0.3 km/h (0 Bft) N 15.0 C 29.3 C
05.07.2001 19:00 27.4 C 47 % 1005.6 hPa 0.0 l/m 0.8 km/h (0 Bft) N 15.0 C 27.4 C
05.07.2001 20:00 25.8 C 51 % 1005.6 hPa 0.0 l/m 0.5 km/h (0 Bft) N 14.8 C 25.8 C
05.07.2001 21:00 23.5 C 56 % 1005.6 hPa 0.0 l/m 0.0 km/h (0 Bft) N 14.1 C 23.5 C
05.07.2001 22:00 22.2 C 57 % 1005.8 hPa 0.0 l/m 0.0 km/h (0 Bft) N 13.2 C 22.2 C
05.07.2001 23:00 20.7 C 63 % 1005.6 hPa 0.0 l/m 0.1 km/h (0 Bft) N 13.3 C 20.7 C
06.07.2001 00:00 19.5 C 66 % 1005.6 hPa 0.0 l/m 0.0 km/h (0 Bft) N 13.1 C 19.5 C
06.07.2001 01:00 18.7 C 69 % 1006.0 hPa 0.0 l/m 0.2 km/h (0 Bft) O-SO 12.8 C 18.7 C
06.07.2001 02:00 17.6 C 74 % 1005.8 hPa 0.0 l/m 0.4 km/h (0 Bft) O-SO 12.9 C 17.6 C
06.07.2001 03:00 16.7 C 76 % 1005.6 hPa 0.0 l/m 0.8 km/h (0 Bft) O-SO 12.5 C 16.7 C
06.07.2001 04:00 16.1 C 80 % 1005.6 hPa 0.0 l/m 0.0 km/h (0 Bft) N 12.6 C 16.1 C
06.07.2001 05:00 15.4 C 85 % 1006.0 hPa 0.0 l/m 0.0 km/h (0 Bft) O-SO 12.8 C 15.4 C
06.07.2001 06:00 15.1 C 87 % 1006.6 hPa 0.0 l/m 4.1 km/h (1 Bft) O-SO 12.9 C 15.1 C
06.07.2001 07:00 16.4 C 81 % 1006.6 hPa 0.0 l/m 0.0 km/h (0 Bft) N 13.1 C 16.4 C
06.07.2001 08:00 18.4 C 72 % 1006.6 hPa 0.0 l/m 0.0 km/h (0 Bft) N 13.3 C 18.4 C
06.07.2001 09:00 20.7 C 65 % 1006.6 hPa 0.0 l/m 0.1 km/h (0 Bft) N 13.9 C 20.7 C
06.07.2001 10:00 22.6 C 59 % 1006.6 hPa 0.0 l/m 0.5 km/h (0 Bft) W-NW 14.2 C 22.6 C
06.07.2001 11:00 24.5 C 54 % 1006.4 hPa 0.0 l/m 1.4 km/h (1 Bft) W-NW 14.6 C 24.5 C
06.07.2001 12:00 27.3 C 49 % 1005.5 hPa 0.0 l/m 3.4 km/h (1 Bft) O-SO 15.6 C 27.3 C
06.07.2001 13:00 30.6 C 42 % 1004.7 hPa 0.0 l/m 9.3 km/h (2 Bft) O-SO 16.3 C 30.6 C
06.07.2001 14:00 31.3 C 38 % 1003.5 hPa 0.0 l/m 6.2 km/h (2 Bft) O-SO 15.1 C 31.3 C
06.07.2001 15:00 31.2 C 34 % 1002.6 hPa 0.0 l/m 11.9 km/h (2 Bft) O-SO 13.5 C 31.2 C
06.07.2001 16:00 31.4 C 33 % 1001.9 hPa 0.0 l/m 13.0 km/h (3 Bft) O-SO 13.0 C 31.4 C
06.07.2001 17:00 31.4 C 34 % 1000.8 hPa 0.0 l/m 12.9 km/h (3 Bft) O-SO 13.7 C 31.4 C
06.07.2001 18:00 31.1 C 38 % 999.2 hPa 0.0 l/m 5.3 km/h (1 Bft) O-SO 15.2 C 31.1 C
06.07.2001 19:00 30.0 C 43 % 998.2 hPa 0.0 l/m 0.3 km/h (0 Bft) NO 16.2 C 30.0 C
06.07.2001 20:00 28.0 C 52 % 997.0 hPa 0.0 l/m 4.0 km/h (1 Bft) O-SO 17.2 C 28.0 C
06.07.2001 21:00 26.0 C 55 % 996.7 hPa 0.0 l/m 6.3 km/h (2 Bft) O-SO 16.2 C 26.0 C
06.07.2001 22:00 22.5 C 61 % 1001.4 hPa 0.0 l/m 45.2 km/h (6 Bft) W-NW 14.4 C 22.5 C
06.07.2001 23:00 20.2 C 69 % 1003.8 hPa 0.0 l/m 12.3 km/h (3 Bft) W-NW 14.4 C 20.2 C
07.07.2001 00:00 19.5 C 73 % 1005.4 hPa 0.0 l/m 1.4 km/h (1 Bft) NW 14.5 C 19.5 C
07.07.2001 01:00 18.7 C 77 % 1005.6 hPa 0.0 l/m 0.3 km/h (0 Bft) W 14.7 C 18.7 C
07.07.2001 02:00 18.4 C 79 % 1005.6 hPa 0.0 l/m 0.0 km/h (0 Bft) N 14.7 C 18.4 C
07.07.2001 03:00 16.9 C 86 % 1005.3 hPa 0.0 l/m 2.4 km/h (1 Bft) O-SO 14.5 C 16.9 C
07.07.2001 04:00 16.1 C 89 % 1005.0 hPa 0.0 l/m 1.4 km/h (1 Bft) O-SO 14.4 C 16.1 C
07.07.2001 05:00 15.9 C 90 % 1005.6 hPa 0.0 l/m 1.2 km/h (1 Bft) O-SO 14.3 C 15.9 C
07.07.2001 06:00 16.6 C 88 % 1005.6 hPa 0.0 l/m 2.3 km/h (1 Bft) O-SO 14.6 C 16.6 C
07.07.2001 07:00 18.2 C 79 % 1005.6 hPa 0.0 l/m 1.2 km/h (1 Bft) W 14.5 C 18.2 C
07.07.2001 08:00 19.0 C 69 % 1005.6 hPa 0.0 l/m 8.5 km/h (2 Bft) W-NW 13.3 C 19.0 C
07.07.2001 09:00 18.1 C 73 % 1005.6 hPa 0.3 l/m 7.0 km/h (2 Bft) W-NW 13.0 C 18.1 C
07.07.2001 10:00 16.2 C 87 % 1006.5 hPa 3.2 l/m 5.7 km/h (1 Bft) W-NW 14.0 C 16.2 C
07.07.2001 11:00 15.5 C 90 % 1007.8 hPa 2.6 l/m 10.7 km/h (2 Bft) NW 13.8 C 15.5 C
07.07.2001 12:00 15.2 C 90 % 1009.2 hPa 2.9 l/m 2.3 km/h (1 Bft) NW 13.6 C 15.2 C
07.07.2001 13:00 16.1 C 89 % 1009.7 hPa 0.3 l/m 2.6 km/h (1 Bft) SO 14.2 C 16.1 C
07.07.2001 14:00 17.3 C 78 % 1009.2 hPa 0.0 l/m 9.5 km/h (2 Bft) SO 13.3 C 17.3 C
07.07.2001 15:00 18.1 C 71 % 1008.7 hPa 0.0 l/m 4.4 km/h (1 Bft) O 12.7 C 18.1 C
07.07.2001 16:00 17.0 C 80 % 1008.7 hPa 0.6 l/m 1.0 km/h (0 Bft) S-SW 13.5 C 17.0 C
07.07.2001 17:00 17.0 C 84 % 1009.7 hPa 0.0 l/m 4.2 km/h (1 Bft) SO 14.2 C 17.0 C
07.07.2001 18:00 18.1 C 78 % 1009.7 hPa 0.0 l/m 3.7 km/h (1 Bft) SO 14.3 C 18.1 C
07.07.2001 19:00 19.3 C 72 % 1009.4 hPa 0.0 l/m 5.0 km/h (1 Bft) O-SO 14.2 C 19.3 C
07.07.2001 20:00 17.6 C 78 % 1009.7 hPa 0.0 l/m 1.6 km/h (1 Bft) O 13.7 C 17.6 C
07.07.2001 21:00 17.1 C 79 % 1009.7 hPa 0.0 l/m 0.5 km/h (0 Bft) O-SO 13.3 C 17.1 C
07.07.2001 22:00 16.5 C 82 % 1009.9 hPa 0.0 l/m 0.1 km/h (0 Bft) N 13.3 C 16.5 C
07.07.2001 23:00 16.6 C 81 % 1010.8 hPa 0.0 l/m 0.4 km/h (0 Bft) S-SO 13.2 C 16.6 C
08.07.2001 00:00 16.2 C 82 % 1010.8 hPa 0.0 l/m 0.2 km/h (0 Bft) N 13.1 C 16.2 C
08.07.2001 01:00 16.0 C 84 % 1010.6 hPa 0.0 l/m 1.3 km/h (1 Bft) SO 13.2 C 16.0 C
08.07.2001 02:00 15.8 C 85 % 1009.9 hPa 0.0 l/m 2.0 km/h (1 Bft) O-SO 13.2 C 15.8 C
08.07.2001 03:00 15.8 C 84 % 1009.7 hPa 0.0 l/m 0.4 km/h (0 Bft) O 13.1 C 15.8 C
08.07.2001 04:00 15.7 C 85 % 1009.7 hPa 0.0 l/m 0.7 km/h (0 Bft) O 13.2 C 15.7 C
08.07.2001 05:00 15.4 C 88 % 1009.7 hPa 0.0 l/m 0.2 km/h (0 Bft) N 13.4 C 15.4 C
08.07.2001 06:00 15.1 C 92 % 1010.1 hPa 0.6 l/m 0.2 km/h (0 Bft) N 13.7 C 15.1 C
08.07.2001 07:00 15.2 C 92 % 1010.8 hPa 0.3 l/m 0.2 km/h (0 Bft) O-SO 14.0 C 15.2 C
08.07.2001 08:00 16.2 C 88 % 1010.8 hPa 0.0 l/m 1.3 km/h (1 Bft) SO 14.2 C 16.2 C
08.07.2001 09:00 17.2 C 84 % 1010.8 hPa 0.0 l/m 1.1 km/h (0 Bft) W-NW 14.5 C 17.2 C
08.07.2001 10:00 18.5 C 73 % 1010.8 hPa 0.0 l/m 8.6 km/h (2 Bft) W-NW 13.5 C 18.5 C
08.07.2001 11:00 19.4 C 68 % 1010.8 hPa 0.0 l/m 10.9 km/h (2 Bft) W-NW 13.3 C 19.4 C
08.07.2001 12:00 20.3 C 62 % 1010.8 hPa 0.0 l/m 15.3 km/h (3 Bft) W-NW 12.7 C 20.3 C
08.07.2001 13:00 21.4 C 56 % 1010.8 hPa 0.0 l/m 19.2 km/h (3 Bft) W-NW 12.2 C 21.4 C
08.07.2001 14:00 22.2 C 53 % 1010.8 hPa 0.0 l/m 14.5 km/h (3 Bft) W-NW 12.1 C 22.2 C
08.07.2001 15:00 22.3 C 52 % 1010.8 hPa 0.0 l/m 26.5 km/h (4 Bft) NW 12.0 C 22.3 C
08.07.2001 16:00 20.4 C 56 % 1010.8 hPa 0.0 l/m 21.7 km/h (4 Bft) NW 11.5 C 20.4 C
08.07.2001 17:00 20.3 C 52 % 1010.8 hPa 0.0 l/m 25.2 km/h (4 Bft) W-NW 10.1 C 20.3 C
08.07.2001 18:00 19.7 C 55 % 1010.8 hPa 0.0 l/m 5.6 km/h (1 Bft) W 10.3 C 19.7 C
08.07.2001 19:00 19.5 C 67 % 1011.7 hPa 0.0 l/m 2.9 km/h (1 Bft) SO 13.2 C 19.5 C
08.07.2001 20:00 17.8 C 74 % 1011.8 hPa 0.0 l/m 2.9 km/h (1 Bft) O-SO 13.2 C 17.8 C
08.07.2001 21:00 16.4 C 82 % 1011.8 hPa 0.0 l/m 3.6 km/h (1 Bft) O-SO 13.2 C 16.4 C
08.07.2001 22:00 15.3 C 86 % 1011.8 hPa 0.0 l/m 0.5 km/h (0 Bft) O-SO 12.9 C 15.3 C
08.07.2001 23:00 14.8 C 86 % 1011.8 hPa 0.0 l/m 0.0 km/h (0 Bft) N 12.6 C 14.8 C
Min-Datum _ 02.07.01 03.07.01 06.07.01 - 02.07.01 - 04.07.01 02.07.01
_ Min-Zeit 05:23 15:08 20:46 - 00:03 - 04:17 05:23
Minimum _ 11.4 C 28 % 996.2 hPa - 0.0 km/h (0 Bft) - 7.7 C 11.4 C
Max-Datum _ 06.07.01 08.07.01 02.07.01 07.07.01 06.07.01 - 06.07.01 06.07.01
_ Max-Zeit 15:42 06:47 00:03 10:43 22:10 - 20:50 15:42
Maximum _ 31.8 C 93 % 1023.3 hPa 3.2 l/m 75.2 km/h
W-NW (9 Bft)
- 17.5 C 31.8 C
Durchschnitt _ 20.2 C 65 % 1010.1 hPa #11.0 l/m 3.8 km/h (1 Bft) O-SO 12.6 C 20.2 C

Durchschnitt Minimum Temp.19.3 C
Durchschnitt Maximum Temp.21.2 C
© Kaiko 2001